Chimay, Belgium
Current Conditions -  °F | °C
As of 5:25 AM on Saturday 25 Oct 2014 (Local Time) from EBFS Reporting Station
Broken Clouds Broken Clouds  
Wind Chill: 50°   Ceiling: 600
Heat Index: 50°   Visibility: 4mi
Dew Point: 50°   Wind: 9mph
Humidity: 100%   Direction: 220°SW
Pressure: 30.06"   Gusts: NA
Location:  50.05°N, 4.32°E
Report Text: EBFS 250325Z 22008KT 7000 FEW003 BKN006 BKN010 10/10 Q1018 YLO
Loading
Personal Weather Stations






























Interactive Weather Map
Tropical Storm Tracking
New forecast layout! Learn more

10-Day Weather Forecast

Advertisements
Track Severe Weather on mobile